Time;durP1;ratioP1;P1;durP2;ratioP2;P2;SDS_P1;SDS_P2;PMS_P1;PMS_P2;Temp;Humidity;BMP_temperature;BMP_pressure;BME280_temperature;BME280_humidity;BME280_pressure;Samples;Min_cycle;Max_cycle;Signal;HPM_P1;HPM_P2
2022/04/16 00:01:34;;;;;;;;;;;6.90;99.90;;;;;;5113796;28;19930;-62
2022/04/16 00:04:00;;;;;;;;;;;6.90;99.90;;;;;;5113052;28;19977;-63
2022/04/16 00:06:26;;;;;;;;;;;7.10;99.90;;;;;;5113120;28;19930;-63
2022/04/16 00:08:51;;;;;;;;;;;7.10;99.90;;;;;;5095432;28;19924;-63
2022/04/16 00:11:17;;;;;;;;;;;7.30;99.90;;;;;;5112762;28;20359;-63
2022/04/16 00:13:43;;;;;;;;;;;7.30;99.90;;;;;;5113311;28;19924;-63
2022/04/16 00:16:09;;;;;;;;;;;7.40;99.90;;;;;;5113271;28;19950;-63
2022/04/16 00:18:35;;;;;;;;;;;7.50;99.90;;;;;;5112920;28;19924;-63
2022/04/16 00:21:04;;;;;;;;;;;7.60;99.90;;;;;;5113448;28;19920;-62
2022/04/16 00:23:30;;;;;;;;;;;7.60;99.90;;;;;;5117768;28;19932;-63
2022/04/16 00:25:56;;;;;;;;;;;7.60;99.90;;;;;;5112780;28;19959;-62
2022/04/16 00:28:22;;;;;;;;;;;7.70;99.90;;;;;;5113286;28;19931;-63
2022/04/16 00:30:47;;;;;;;;;;;7.70;99.90;;;;;;5113657;28;19928;-63
2022/04/16 00:33:13;;;;;;;;;;;7.70;99.90;;;;;;5112461;28;20041;-63
2022/04/16 00:35:42;;;;;;;;;;;7.60;99.90;;;;;;5113089;28;20393;-63
2022/04/16 00:38:12;;;;;;;;;;;7.60;99.90;;;;;;5113257;28;20012;-62
2022/04/16 00:40:42;;;;;;;;;;;7.50;99.90;;;;;;5094684;28;19931;-62
2022/04/16 00:43:29;;;;;;;;;;;7.40;99.90;;;;;;5112860;28;19924;-62
2022/04/16 00:45:55;;;;;;;;;;;7.50;99.90;;;;;;5113124;28;20619;-62
2022/04/16 00:48:21;;;;;;;;;;;7.30;99.90;;;;;;5098545;28;19924;-63
2022/04/16 00:50:48;;;;;;;;;;;7.30;99.90;;;;;;5116665;28;19928;-63
2022/04/16 00:53:14;;;;;;;;;;;7.30;99.90;;;;;;5098484;28;19962;-63
2022/04/16 00:55:39;;;;;;;;;;;7.30;99.90;;;;;;5117136;28;20462;-63
2022/04/16 00:58:05;;;;;;;;;;;7.30;99.90;;;;;;5116630;28;19931;-63
2022/04/16 01:00:30;;;;;;;;;;;7.30;99.90;;;;;;5116185;28;19965;-63
2022/04/16 01:02:56;;;;;;;;;;;7.30;99.90;;;;;;5117184;28;19981;-63
2022/04/16 01:05:22;;;;;;;;;;;7.40;99.90;;;;;;5098338;28;19931;-63
2022/04/16 01:07:52;;;;;;;;;;;7.40;99.90;;;;;;5115785;28;19920;-63
2022/04/16 01:10:17;;;;;;;;;;;7.50;99.90;;;;;;5116842;28;19984;-63
2022/04/16 01:12:43;;;;;;;;;;;7.60;99.90;;;;;;5116556;28;20382;-63
2022/04/16 01:15:10;;;;;;;;;;;7.70;99.90;;;;;;5097600;28;19923;-63
2022/04/16 01:17:36;;;;;;;;;;;7.70;99.90;;;;;;5116411;28;19980;-63
2022/04/16 01:20:02;;;;;;;;;;;7.80;99.90;;;;;;5116353;28;19924;-63
2022/04/16 01:22:29;;;;;;;;;;;7.80;99.90;;;;;;5115826;28;19955;-63
2022/04/16 01:24:54;;;;;;;;;;;7.90;99.90;;;;;;5136705;27;19923;-63
2022/04/16 01:27:20;;;;;;;;;;;8.00;99.90;;;;;;5117010;27;20006;-63
2022/04/16 01:29:47;;;;;;;;;;;8.00;99.90;;;;;;5097786;28;19931;-63
2022/04/16 01:32:13;;;;;;;;;;;8.00;99.90;;;;;;5098360;28;19920;-63
2022/04/16 01:34:40;;;;;;;;;;;8.30;99.90;;;;;;5115691;28;20289;-62
2022/04/16 01:37:05;;;;;;;;;;;8.10;99.90;;;;;;5115493;28;19923;-63
2022/04/16 01:39:32;;;;;;;;;;;8.10;99.90;;;;;;5098004;28;19935;-63
2022/04/16 01:41:58;;;;;;;;;;;8.20;99.90;;;;;;5115346;28;19923;-63
2022/04/16 01:44:24;;;;;;;;;;;8.20;99.90;;;;;;5116053;28;19946;-63
2022/04/16 01:46:49;;;;;;;;;;;8.30;99.90;;;;;;5116084;28;20362;-63
2022/04/16 01:49:15;;;;;;;;;;;8.30;99.90;;;;;;5115202;28;19978;-63
2022/04/16 01:51:41;;;;;;;;;;;8.30;99.90;;;;;;5115709;28;19931;-62
2022/04/16 01:54:06;;;;;;;;;;;8.30;99.90;;;;;;5116052;28;19986;-63
2022/04/16 01:56:32;;;;;;;;;;;8.20;99.90;;;;;;5115180;28;20010;-63
2022/04/16 01:58:58;;;;;;;;;;;8.10;99.90;;;;;;5115654;28;19920;-63
2022/04/16 02:01:23;;;;;;;;;;;8.10;99.90;;;;;;5115640;28;19924;-63
2022/04/16 02:03:49;;;;;;;;;;;8.20;99.90;;;;;;5114654;28;19959;-63
2022/04/16 02:06:17;;;;;;;;;;;8.20;99.90;;;;;;5116032;28;20010;-63
2022/04/16 02:08:43;;;;;;;;;;;8.20;99.90;;;;;;5115660;28;20378;-63
2022/04/16 02:11:09;;;;;;;;;;;8.20;99.90;;;;;;5114182;28;19935;-63
2022/04/16 02:13:35;;;;;;;;;;;8.30;99.90;;;;;;5115802;28;20023;-63
2022/04/16 02:16:01;;;;;;;;;;;8.30;99.90;;;;;;5115626;28;19924;-63
2022/04/16 02:18:27;;;;;;;;;;;8.30;99.90;;;;;;5114387;28;20374;-63
2022/04/16 02:20:53;;;;;;;;;;;8.30;99.90;;;;;;5115629;28;19923;-63
2022/04/16 02:23:19;;;;;;;;;;;8.40;99.90;;;;;;5121779;27;19930;-63
2022/04/16 02:25:44;;;;;;;;;;;8.60;99.90;;;;;;5134982;27;19923;-62
2022/04/16 02:28:10;;;;;;;;;;;8.20;99.90;;;;;;5125514;27;20079;-63
2022/04/16 02:30:37;;;;;;;;;;;8.20;99.90;;;;;;5115399;28;20116;-63
2022/04/16 02:33:03;;;;;;;;;;;8.20;99.90;;;;;;5114473;28;19924;-62
2022/04/16 02:35:29;;;;;;;;;;;8.10;99.90;;;;;;5096723;28;19924;-63
2022/04/16 02:37:55;;;;;;;;;;;8.10;99.90;;;;;;5114946;28;19930;-62
2022/04/16 02:40:21;;;;;;;;;;;8.00;99.90;;;;;;5114208;28;20338;-63
2022/04/16 02:42:46;;;;;;;;;;;8.00;99.90;;;;;;5096748;28;19978;-63
2022/04/16 02:47:59;;;;;;;;;;;7.90;99.90;;;;;;5114600;28;20420;-62
2022/04/16 02:50:25;;;;;;;;;;;7.90;99.90;;;;;;5115123;28;19928;-62
2022/04/16 02:52:53;;;;;;;;;;;7.90;99.90;;;;;;5114298;28;19923;-62
2022/04/16 02:55:19;;;;;;;;;;;7.90;99.90;;;;;;5114714;28;20027;-63
2022/04/16 02:57:45;;;;;;;;;;;7.90;99.90;;;;;;5114686;28;20007;-62
2022/04/16 03:00:11;;;;;;;;;;;7.80;99.90;;;;;;5112656;28;20430;-63
2022/04/16 03:02:37;;;;;;;;;;;7.80;99.90;;;;;;5095506;28;19977;-62
2022/04/16 03:05:03;;;;;;;;;;;7.80;99.90;;;;;;5114842;28;19963;-62
2022/04/16 03:07:29;;;;;;;;;;;7.80;99.90;;;;;;5095608;28;19978;-62
2022/04/16 03:09:54;;;;;;;;;;;7.90;99.90;;;;;;5113708;28;19967;-62
2022/04/16 03:12:20;;;;;;;;;;;7.90;99.90;;;;;;5114286;28;19924;-62
2022/04/16 03:17:31;;;;;;;;;;;7.70;99.90;;;;;;5114069;28;19924;-62
2022/04/16 03:19:57;;;;;;;;;;;7.70;99.90;;;;;;5095909;28;19928;-62
2022/04/16 03:22:23;;;;;;;;;;;7.70;99.90;;;;;;5112668;28;20281;-62
2022/04/16 03:24:48;;;;;;;;;;;7.70;99.90;;;;;;5113642;28;19931;-62
2022/04/16 03:27:16;;;;;;;;;;;7.70;99.90;;;;;;5095789;28;20426;-62
2022/04/16 03:29:41;;;;;;;;;;;7.60;99.90;;;;;;5113142;28;19919;-62
2022/04/16 03:32:07;;;;;;;;;;;7.60;99.90;;;;;;5113611;28;20346;-62
2022/04/16 03:34:33;;;;;;;;;;;7.60;99.90;;;;;;5094594;28;20072;-62
2022/04/16 03:36:59;;;;;;;;;;;7.60;99.90;;;;;;5113889;28;19923;-62
2022/04/16 03:39:24;;;;;;;;;;;7.60;99.90;;;;;;5110293;28;20259;-62
2022/04/16 03:41:51;;;;;;;;;;;7.60;99.90;;;;;;5113229;28;19930;-62
2022/04/16 03:44:16;;;;;;;;;;;7.50;99.90;;;;;;5114171;28;20212;-61
2022/04/16 03:46:42;;;;;;;;;;;7.50;99.90;;;;;;5113527;28;19986;-62
2022/04/16 03:49:07;;;;;;;;;;;7.60;99.90;;;;;;5113193;28;19930;-62
2022/04/16 03:51:33;;;;;;;;;;;7.40;99.90;;;;;;5078717;28;19928;-62
2022/04/16 03:59:59;;;;;;;;;;;7.40;99.90;;;;;;5113749;28;20015;-63
2022/04/16 04:02:12;;;;;;;;;;;7.40;99.90;;;;;;5113383;28;19947;-62
2022/04/16 04:04:38;;;;;;;;;;;7.40;99.90;;;;;;5112548;28;20293;-62
2022/04/16 04:07:04;;;;;;;;;;;7.40;99.90;;;;;;5095288;28;19923;-62
2022/04/16 04:09:31;;;;;;;;;;;7.30;99.90;;;;;;5091497;28;19931;-62
2022/04/16 04:11:57;;;;;;;;;;;7.40;99.90;;;;;;5091410;28;19948;-62
2022/04/16 04:14:22;;;;;;;;;;;7.30;99.90;;;;;;5113042;28;19946;-62
2022/04/16 04:16:48;;;;;;;;;;;7.40;99.90;;;;;;5105091;28;20015;-62
2022/04/16 04:19:13;;;;;;;;;;;7.40;99.90;;;;;;5093319;28;20301;-63
2022/04/16 04:21:39;;;;;;;;;;;7.40;99.90;;;;;;5093949;28;19924;-62
2022/04/16 04:24:04;;;;;;;;;;;7.30;99.90;;;;;;5108139;28;19924;-62
2022/04/16 04:26:30;;;;;;;;;;;7.30;99.90;;;;;;5112559;28;20332;-62
2022/04/16 04:28:56;;;;;;;;;;;7.30;99.90;;;;;;5092057;28;19928;-62
2022/04/16 04:31:21;;;;;;;;;;;7.40;99.90;;;;;;5091411;28;19924;-62
2022/04/16 04:33:47;;;;;;;;;;;7.30;99.90;;;;;;5082888;28;19924;-62
2022/04/16 04:36:12;;;;;;;;;;;7.50;99.90;;;;;;5101350;28;19924;-62
2022/04/16 04:38:38;;;;;;;;;;;7.20;99.90;;;;;;5096433;28;19924;-62
2022/04/16 04:41:04;;;;;;;;;;;7.20;99.90;;;;;;5087790;28;20268;-62
2022/04/16 04:43:30;;;;;;;;;;;7.10;99.90;;;;;;5100359;28;20382;-62
2022/04/16 04:45:55;;;;;;;;;;;7.10;99.90;;;;;;5108280;28;20297;-62
2022/04/16 04:48:21;;;;;;;;;;;7.10;99.90;;;;;;5101146;28;20431;-62
2022/04/16 04:50:47;;;;;;;;;;;6.90;99.90;;;;;;5115095;28;19924;-62
2022/04/16 04:53:12;;;;;;;;;;;6.90;99.90;;;;;;5116249;28;20083;-62
2022/04/16 04:55:38;;;;;;;;;;;6.90;99.90;;;;;;5117286;28;19932;-62
2022/04/16 04:58:04;;;;;;;;;;;6.90;99.90;;;;;;5116244;28;19924;-62
2022/04/16 05:00:30;;;;;;;;;;;6.90;99.90;;;;;;5097635;28;19970;-62
2022/04/16 05:02:56;;;;;;;;;;;7.00;99.90;;;;;;5113333;28;19931;-62
2022/04/16 05:05:21;;;;;;;;;;;7.00;99.90;;;;;;5096549;28;19924;-62
2022/04/16 05:07:47;;;;;;;;;;;7.00;99.90;;;;;;5089429;28;20289;-62
2022/04/16 05:10:13;;;;;;;;;;;7.00;99.90;;;;;;5116788;28;19924;-62
2022/04/16 05:12:39;;;;;;;;;;;7.00;99.90;;;;;;5117007;28;19963;-62
2022/04/16 05:15:05;;;;;;;;;;;7.00;99.90;;;;;;5116284;28;20018;-62
2022/04/16 05:17:30;;;;;;;;;;;7.00;99.90;;;;;;5102382;28;20003;-62
2022/04/16 05:19:56;;;;;;;;;;;7.00;99.90;;;;;;5095599;28;19998;-62
2022/04/16 05:22:22;;;;;;;;;;;7.00;99.90;;;;;;5077482;28;20074;-62
2022/04/16 05:24:47;;;;;;;;;;;7.00;99.90;;;;;;5101891;28;20015;-62
2022/04/16 05:27:13;;;;;;;;;;;6.90;99.90;;;;;;5100924;28;19920;-62
2022/04/16 05:32:24;;;;;;;;;;;6.90;99.90;;;;;;5092187;28;20414;-62
2022/04/16 05:34:53;;;;;;;;;;;6.80;99.90;;;;;;5111832;28;19997;-62
2022/04/16 05:37:18;;;;;;;;;;;6.90;99.90;;;;;;5097790;28;19966;-62
2022/04/16 05:39:44;;;;;;;;;;;6.90;99.90;;;;;;5116612;28;19967;-62
2022/04/16 05:42:10;;;;;;;;;;;6.90;99.90;;;;;;5114882;28;20382;-62
2022/04/16 05:44:35;;;;;;;;;;;6.90;99.90;;;;;;5084058;28;19924;-62
2022/04/16 05:47:01;;;;;;;;;;;6.90;99.90;;;;;;5094349;28;19924;-62
2022/04/16 05:49:27;;;;;;;;;;;6.90;99.90;;;;;;5093850;28;19965;-62
2022/04/16 05:51:53;;;;;;;;;;;7.00;99.90;;;;;;5083802;28;19924;-62
2022/04/16 05:54:18;;;;;;;;;;;7.00;99.90;;;;;;5091920;28;19931;-62
2022/04/16 05:56:44;;;;;;;;;;;7.30;99.90;;;;;;5090740;28;19938;-62
2022/04/16 05:59:09;;;;;;;;;;;7.10;99.90;;;;;;5079112;28;20031;-62
2022/04/16 06:01:35;;;;;;;;;;;7.20;99.90;;;;;;5102963;28;19977;-62
2022/04/16 06:04:01;;;;;;;;;;;7.20;99.90;;;;;;5100672;28;19937;-62
2022/04/16 06:06:26;;;;;;;;;;;7.20;99.90;;;;;;5115839;28;19928;-62
2022/04/16 06:08:52;;;;;;;;;;;7.30;99.90;;;;;;5114279;28;19930;-62
2022/04/16 06:11:20;;;;;;;;;;;7.30;99.90;;;;;;5114655;28;19924;-62
2022/04/16 06:13:45;;;;;;;;;;;7.40;99.90;;;;;;5078682;28;19974;-62
2022/04/16 06:16:11;;;;;;;;;;;7.50;99.90;;;;;;5074009;28;19928;-62
2022/04/16 06:18:37;;;;;;;;;;;7.50;99.90;;;;;;5094271;28;20006;-62
2022/04/16 06:21:02;;;;;;;;;;;7.60;99.90;;;;;;5060481;28;19924;-62
2022/04/16 06:23:28;;;;;;;;;;;7.80;99.90;;;;;;5075514;28;20378;-62
2022/04/16 06:25:53;;;;;;;;;;;7.70;99.90;;;;;;5077199;28;20007;-62
2022/04/16 06:28:19;;;;;;;;;;;7.90;99.90;;;;;;5114851;28;20349;-62
2022/04/16 06:30:45;;;;;;;;;;;7.90;99.90;;;;;;5114613;28;20305;-62
2022/04/16 06:33:10;;;;;;;;;;;8.00;99.90;;;;;;5115441;28;19977;-63
2022/04/16 06:35:36;;;;;;;;;;;8.00;99.90;;;;;;5114609;28;20072;-62
2022/04/16 06:38:01;;;;;;;;;;;8.10;99.90;;;;;;5095744;28;20014;-62
2022/04/16 06:40:29;;;;;;;;;;;8.20;99.90;;;;;;5097009;28;19967;-62
2022/04/16 06:42:54;;;;;;;;;;;8.30;99.90;;;;;;5115109;28;20010;-62
2022/04/16 06:45:21;;;;;;;;;;;8.40;99.90;;;;;;5093299;28;20061;-62
2022/04/16 06:47:47;;;;;;;;;;;8.50;99.90;;;;;;5094400;28;20363;-62
2022/04/16 06:50:13;;;;;;;;;;;8.60;99.90;;;;;;5094395;28;20018;-62
2022/04/16 06:52:39;;;;;;;;;;;8.60;99.90;;;;;;5094456;28;19920;-62
2022/04/16 06:55:05;;;;;;;;;;;8.70;99.90;;;;;;5112899;28;20285;-62
2022/04/16 06:57:30;;;;;;;;;;;8.80;99.90;;;;;;5094481;28;19924;-62
2022/04/16 06:59:56;;;;;;;;;;;8.90;99.90;;;;;;5093206;28;19935;-62
2022/04/16 07:02:22;;;;;;;;;;;9.00;99.90;;;;;;5102653;28;19927;-62
2022/04/16 07:04:47;;;;;;;;;;;9.00;99.90;;;;;;5095404;28;19946;-62
2022/04/16 07:07:13;;;;;;;;;;;9.10;99.90;;;;;;5074928;28;19924;-62
2022/04/16 07:09:39;;;;;;;;;;;9.20;99.90;;;;;;5094228;28;19924;-62
2022/04/16 07:12:06;;;;;;;;;;;9.30;99.90;;;;;;5093466;28;19924;-62
2022/04/16 07:14:33;;;;;;;;;;;9.30;99.90;;;;;;5075241;28;19950;-62
2022/04/16 07:16:59;;;;;;;;;;;9.50;99.90;;;;;;5093852;28;20027;-62
2022/04/16 07:19:25;;;;;;;;;;;9.50;99.90;;;;;;5096878;28;19920;-62
2022/04/16 07:21:50;;;;;;;;;;;9.50;99.90;;;;;;5094581;28;19924;-62
2022/04/16 07:24:16;;;;;;;;;;;9.70;99.90;;;;;;5107915;28;19923;-62
2022/04/16 07:26:42;;;;;;;;;;;9.70;99.90;;;;;;5113468;28;20051;-62
2022/04/16 07:29:07;;;;;;;;;;;9.80;99.90;;;;;;5102538;28;19924;-62
2022/04/16 07:31:33;;;;;;;;;;;9.90;99.90;;;;;;5094035;28;20384;-63
2022/04/16 07:33:59;;;;;;;;;;;10.00;99.90;;;;;;5093078;28;19928;-62
2022/04/16 07:36:24;;;;;;;;;;;10.10;99.90;;;;;;5075220;28;19924;-62
2022/04/16 07:38:50;;;;;;;;;;;10.20;99.90;;;;;;5111174;28;19955;-63
2022/04/16 07:41:16;;;;;;;;;;;10.20;99.90;;;;;;5113307;28;19976;-63
2022/04/16 07:43:41;;;;;;;;;;;10.30;99.90;;;;;;5095355;28;20288;-62
2022/04/16 07:46:07;;;;;;;;;;;10.40;99.90;;;;;;5113277;28;20115;-62
2022/04/16 07:48:33;;;;;;;;;;;10.50;99.90;;;;;;5094918;28;19974;-62
2022/04/16 07:50:58;;;;;;;;;;;10.60;99.90;;;;;;5092081;28;19974;-63
2022/04/16 07:53:24;;;;;;;;;;;10.70;99.90;;;;;;5092324;28;20015;-62
2022/04/16 07:55:50;;;;;;;;;;;10.90;99.90;;;;;;5090637;28;20362;-63
2022/04/16 07:58:15;;;;;;;;;;;10.90;99.90;;;;;;5091358;28;19939;-62
2022/04/16 08:00:41;;;;;;;;;;;11.20;99.90;;;;;;5076818;28;19924;-62
2022/04/16 08:03:06;;;;;;;;;;;11.20;99.90;;;;;;5097855;28;19927;-62
2022/04/16 08:05:32;;;;;;;;;;;11.30;99.90;;;;;;5075586;28;19924;-63
2022/04/16 08:07:58;;;;;;;;;;;11.40;99.90;;;;;;5075239;28;19924;-63
2022/04/16 08:10:24;;;;;;;;;;;11.50;99.90;;;;;;5091983;28;19931;-63
2022/04/16 08:12:49;;;;;;;;;;;11.70;99.90;;;;;;5091140;28;19924;-63
2022/04/16 08:15:15;;;;;;;;;;;11.80;99.90;;;;;;5073589;28;19928;-63
2022/04/16 08:17:41;;;;;;;;;;;11.90;99.90;;;;;;5091847;28;19932;-63
2022/04/16 08:20:07;;;;;;;;;;;12.00;99.90;;;;;;5093028;28;20437;-63
2022/04/16 08:22:34;;;;;;;;;;;12.00;99.90;;;;;;5097824;28;19924;-63
2022/04/16 08:27:45;;;;;;;;;;;12.20;99.90;;;;;;5089264;28;20339;-63
2022/04/16 08:30:11;;;;;;;;;;;12.30;99.90;;;;;;5094594;28;19963;-62
2022/04/16 08:32:37;;;;;;;;;;;12.40;99.90;;;;;;5113404;28;20383;-63
2022/04/16 08:35:04;;;;;;;;;;;12.50;99.90;;;;;;5113129;28;20014;-63
2022/04/16 08:37:31;;;;;;;;;;;12.60;99.90;;;;;;5112696;28;20506;-63
2022/04/16 08:39:56;;;;;;;;;;;12.80;99.90;;;;;;5101379;28;19969;-63
2022/04/16 08:42:22;;;;;;;;;;;12.80;99.90;;;;;;5074418;28;20301;-63
2022/04/16 08:44:48;;;;;;;;;;;12.90;99.90;;;;;;5092511;28;19931;-63
2022/04/16 08:47:14;;;;;;;;;;;13.00;99.90;;;;;;5092867;28;19920;-63
2022/04/16 08:49:41;;;;;;;;;;;13.00;99.90;;;;;;5111058;28;20285;-63
2022/04/16 08:52:08;;;;;;;;;;;13.10;99.90;;;;;;5112495;28;19923;-63
2022/04/16 08:54:35;;;;;;;;;;;13.20;99.90;;;;;;5100761;28;20630;-63
2022/04/16 08:57:01;;;;;;;;;;;13.30;99.90;;;;;;5075998;28;19951;-63
2022/04/16 08:59:26;;;;;;;;;;;13.40;99.40;;;;;;5090880;28;20335;-63
2022/04/16 09:01:52;;;;;;;;;;;13.50;99.20;;;;;;5077163;28;19924;-63
2022/04/16 09:04:19;;;;;;;;;;;13.60;98.80;;;;;;5091169;28;19975;-62
2022/04/16 09:06:56;;;;;;;;;;;13.70;97.40;;;;;;5079963;28;19942;-63
2022/04/16 09:09:22;;;;;;;;;;;13.80;97.30;;;;;;5093822;28;19924;-63
2022/04/16 09:11:49;;;;;;;;;;;13.80;97.70;;;;;;5096649;28;20271;-63
2022/04/16 09:14:14;;;;;;;;;;;13.90;97.00;;;;;;5075909;28;19924;-63
2022/04/16 09:16:40;;;;;;;;;;;14.00;96.80;;;;;;5080024;28;19947;-63
2022/04/16 09:19:11;;;;;;;;;;;14.10;96.70;;;;;;5094482;28;19955;-63
2022/04/16 09:21:37;;;;;;;;;;;14.20;95.30;;;;;;5094763;28;20007;-63
2022/04/16 09:24:03;;;;;;;;;;;14.30;93.80;;;;;;5094573;28;19960;-63
2022/04/16 09:26:34;;;;;;;;;;;14.40;92.20;;;;;;5095626;28;20392;-62
2022/04/16 09:29:06;;;;;;;;;;;14.50;93.70;;;;;;5095931;28;19925;-63
2022/04/16 09:31:34;;;;;;;;;;;14.50;94.70;;;;;;5095688;28;19924;-63
2022/04/16 09:34:00;;;;;;;;;;;14.70;94.00;;;;;;5094797;28;19938;-63
2022/04/16 09:36:26;;;;;;;;;;;14.70;94.30;;;;;;5095532;28;19928;-63
2022/04/16 09:39:02;;;;;;;;;;;14.90;93.70;;;;;;5095792;28;20449;-63
2022/04/16 09:41:31;;;;;;;;;;;14.90;93.90;;;;;;5102409;28;20370;-63
2022/04/16 09:43:57;;;;;;;;;;;15.10;90.90;;;;;;5116185;28;19923;-63
2022/04/16 09:46:26;;;;;;;;;;;15.10;87.60;;;;;;5116326;28;19923;-63
2022/04/16 09:48:55;;;;;;;;;;;15.20;85.90;;;;;;5076962;28;19924;-63
2022/04/16 09:51:23;;;;;;;;;;;15.20;86.40;;;;;;5111856;28;19984;-63
2022/04/16 09:53:50;;;;;;;;;;;15.20;80.00;;;;;;5116282;28;19923;-63
2022/04/16 09:56:16;;;;;;;;;;;15.30;75.30;;;;;;5115534;28;20143;-63
2022/04/16 09:58:44;;;;;;;;;;;15.40;75.40;;;;;;5114729;28;20362;-63
2022/04/16 10:01:11;;;;;;;;;;;15.50;75.30;;;;;;5115686;28;19930;-63
2022/04/16 10:03:38;;;;;;;;;;;15.50;76.40;;;;;;5106009;28;19981;-63
2022/04/16 10:06:04;;;;;;;;;;;15.60;77.50;;;;;;5077035;28;19924;-63
2022/04/16 10:08:31;;;;;;;;;;;15.70;80.10;;;;;;5094042;28;19930;-63
2022/04/16 10:10:58;;;;;;;;;;;15.80;77.20;;;;;;5095081;28;20445;-63
2022/04/16 10:13:23;;;;;;;;;;;16.00;77.20;;;;;;5095288;28;19924;-63
2022/04/16 10:16:04;;;;;;;;;;;16.10;78.10;;;;;;5078371;28;19930;-63
2022/04/16 10:18:32;;;;;;;;;;;16.20;75.40;;;;;;5074470;28;20046;-63
2022/04/16 10:20:59;;;;;;;;;;;16.60;75.90;;;;;;5086322;28;19928;-63
2022/04/16 10:23:29;;;;;;;;;;;17.10;73.70;;;;;;5101375;28;20001;-63
2022/04/16 10:25:55;;;;;;;;;;;;;;;;;;5115127;28;19924;-63
2022/04/16 10:28:23;;;;;;;;;;;18.10;66.00;;;;;;5102028;28;19920;-63
2022/04/16 10:30:51;;;;;;;;;;;18.50;60.50;;;;;;5093100;28;19931;-63
2022/04/16 10:33:17;;;;;;;;;;;19.00;56.70;;;;;;5093770;28;20294;-63
2022/04/16 10:35:50;;;;;;;;;;;19.50;57.70;;;;;;5111993;28;19931;-63
2022/04/16 10:38:31;;;;;;;;;;;20.00;55.90;;;;;;5087800;28;19931;-63
2022/04/16 10:40:57;;;;;;;;;;;20.50;54.30;;;;;;5093777;28;19928;-64
2022/04/16 10:43:25;;;;;;;;;;;21.10;54.30;;;;;;5093626;28;20366;-63
2022/04/16 10:45:56;;;;;;;;;;;21.50;50.90;;;;;;5094406;28;19931;-63
2022/04/16 10:48:21;;;;;;;;;;;21.50;48.30;;;;;;5094452;28;19924;-63
2022/04/16 10:50:48;;;;;;;;;;;21.70;47.00;;;;;;5094091;28;19931;-63
2022/04/16 10:53:15;;;;;;;;;;;21.80;47.50;;;;;;5110404;28;19928;-63
2022/04/16 10:55:48;;;;;;;;;;;21.90;47.00;;;;;;5107332;28;19959;-63
2022/04/16 10:58:16;;;;;;;;;;;21.80;46.50;;;;;;5093114;28;19963;-64
2022/04/16 11:00:49;;;;;;;;;;;21.90;47.20;;;;;;5093055;28;19927;-63
2022/04/16 11:03:17;;;;;;;;;;;22.10;46.90;;;;;;5092647;28;19924;-64
2022/04/16 11:05:43;;;;;;;;;;;22.30;46.10;;;;;;5092183;28;20324;-63
2022/04/16 11:08:10;;;;;;;;;;;22.70;45.80;;;;;;5093463;28;20006;-63
2022/04/16 11:10:36;;;;;;;;;;;23.00;42.50;;;;;;5092964;28;20397;-63
2022/04/16 11:13:02;;;;;;;;;;;23.20;42.60;;;;;;5093335;28;19924;-64
2022/04/16 11:15:28;;;;;;;;;;;23.30;42.40;;;;;;5094046;28;19925;-64
2022/04/16 11:17:54;;;;;;;;;;;23.50;41.50;;;;;;5093625;28;19924;-64
2022/04/16 11:20:22;;;;;;;;;;;23.60;42.80;;;;;;5088203;28;21422;-63
2022/04/16 11:22:48;;;;;;;;;;;23.90;42.50;;;;;;5095622;28;20274;-63
2022/04/16 11:25:14;;;;;;;;;;;24.30;42.80;;;;;;5096092;28;20374;-63
2022/04/16 11:35:54;;;;;;;;;;;25.30;40.00;;;;;;5096234;28;19923;-63
2022/04/16 11:38:29;;;;;;;;;;;25.60;39.90;;;;;;5114122;28;19949;-64
2022/04/16 11:40:56;;;;;;;;;;;25.90;39.50;;;;;;5112840;28;19924;-63
2022/04/16 11:43:23;;;;;;;;;;;25.80;38.30;;;;;;5113953;28;19923;-64
2022/04/16 11:45:50;;;;;;;;;;;25.90;38.10;;;;;;5113443;28;19959;-64
2022/04/16 11:48:16;;;;;;;;;;;25.90;38.10;;;;;;5096907;28;19932;-64
2022/04/16 11:50:42;;;;;;;;;;;25.90;37.00;;;;;;5093728;28;19920;-64
2022/04/16 11:53:10;;;;;;;;;;;25.80;37.90;;;;;;5075444;28;19924;-63
2022/04/16 11:55:43;;;;;;;;;;;25.90;38.80;;;;;;5112061;28;19924;-64
2022/04/16 11:58:09;;;;;;;;;;;26.00;38.30;;;;;;5094878;28;19934;-64
2022/04/16 12:00:34;;;;;;;;;;;26.10;37.60;;;;;;5113537;28;19923;-63
2022/04/16 12:03:00;;;;;;;;;;;26.10;37.30;;;;;;5108005;28;19931;-63
2022/04/16 12:05:27;;;;;;;;;;;25.90;37.20;;;;;;5093627;28;19928;-63
2022/04/16 12:07:53;;;;;;;;;;;25.70;37.20;;;;;;5092518;28;20390;-64
2022/04/16 12:10:18;;;;;;;;;;;25.90;38.10;;;;;;5092466;28;19975;-63
2022/04/16 12:12:52;;;;;;;;;;;26.30;37.80;;;;;;5090763;28;19928;-64
2022/04/16 12:15:18;;;;;;;;;;;26.60;36.60;;;;;;5086548;28;19935;-64
2022/04/16 12:17:44;;;;;;;;;;;26.70;35.70;;;;;;5089256;28;19928;-64
2022/04/16 12:20:10;;;;;;;;;;;26.60;35.40;;;;;;5092652;28;19977;-64
2022/04/16 12:22:47;;;;;;;;;;;26.60;36.50;;;;;;5091818;28;19920;-63
2022/04/16 12:25:13;;;;;;;;;;;27.20;36.20;;;;;;5113017;28;19924;-63
2022/04/16 12:27:44;;;;;;;;;;;27.00;37.10;;;;;;5113396;28;20289;-63
2022/04/16 12:30:12;;;;;;;;;;;27.20;35.00;;;;;;5112186;28;19924;-64
2022/04/16 12:32:39;;;;;;;;;;;27.40;35.20;;;;;;5113145;28;19920;-63
2022/04/16 12:35:04;;;;;;;;;;;27.40;35.20;;;;;;5113285;28;19923;-63
2022/04/16 12:37:30;;;;;;;;;;;27.40;35.50;;;;;;5112015;28;20310;-63
2022/04/16 12:39:56;;;;;;;;;;;27.50;35.00;;;;;;5113292;28;19957;-63
2022/04/16 12:42:21;;;;;;;;;;;27.80;35.50;;;;;;5113902;28;19927;-63
2022/04/16 12:44:47;;;;;;;;;;;27.90;34.50;;;;;;5116537;28;19924;-63
2022/04/16 12:47:14;;;;;;;;;;;27.60;34.10;;;;;;5091619;28;19958;-63
2022/04/16 12:49:39;;;;;;;;;;;27.50;34.30;;;;;;5096603;28;20400;-63
2022/04/16 12:52:05;;;;;;;;;;;27.70;35.00;;;;;;5096429;28;19924;-63
2022/04/16 12:54:31;;;;;;;;;;;27.60;34.50;;;;;;5096583;28;19982;-63
2022/04/16 12:56:57;;;;;;;;;;;27.50;34.20;;;;;;5110781;28;19931;-63
2022/04/16 12:59:22;;;;;;;;;;;27.30;33.70;;;;;;5116643;28;19920;-63
2022/04/16 13:01:48;;;;;;;;;;;27.20;34.90;;;;;;5116583;28;19924;-63
2022/04/16 13:04:14;;;;;;;;;;;26.90;34.60;;;;;;5100639;28;19966;-63
2022/04/16 13:06:39;;;;;;;;;;;26.70;34.20;;;;;;5096753;28;19924;-64
2022/04/16 13:09:05;;;;;;;;;;;26.40;34.90;;;;;;5096290;28;20401;-64
2022/04/16 13:11:31;;;;;;;;;;;26.30;34.70;;;;;;5095862;28;20002;-64
2022/04/16 13:13:57;;;;;;;;;;;26.10;35.10;;;;;;5105406;28;19927;-63
2022/04/16 13:16:22;;;;;;;;;;;25.90;34.40;;;;;;5095580;28;19931;-64
2022/04/16 13:18:49;;;;;;;;;;;25.70;35.20;;;;;;5077450;28;19924;-64
2022/04/16 13:21:15;;;;;;;;;;;25.70;36.10;;;;;;5096129;28;19924;-63
2022/04/16 13:23:41;;;;;;;;;;;25.80;36.00;;;;;;5094743;28;19924;-64
2022/04/16 13:26:07;;;;;;;;;;;25.90;36.30;;;;;;5094937;28;19928;-63
2022/04/16 13:28:32;;;;;;;;;;;25.90;35.00;;;;;;5095944;28;19924;-64
2022/04/16 13:30:58;;;;;;;;;;;25.60;35.20;;;;;;5080499;28;19924;-64
2022/04/16 13:33:24;;;;;;;;;;;25.50;35.50;;;;;;5116080;28;19923;-63
2022/04/16 13:35:49;;;;;;;;;;;25.50;35.90;;;;;;5116441;28;19924;-64
2022/04/16 13:38:15;;;;;;;;;;;25.30;35.80;;;;;;5097735;28;19975;-63
2022/04/16 13:43:25;;;;;;;;;;;25.10;37.40;;;;;;5116337;28;19927;-64
2022/04/16 13:45:51;;;;;;;;;;;25.00;36.50;;;;;;5115692;28;19938;-64
2022/04/16 13:48:17;;;;;;;;;;;24.90;37.30;;;;;;5099092;28;19924;-64
2022/04/16 13:50:42;;;;;;;;;;;25.00;36.40;;;;;;5116297;28;20382;-64
2022/04/16 13:53:08;;;;;;;;;;;25.10;35.40;;;;;;5115251;28;19931;-64
2022/04/16 13:55:33;;;;;;;;;;;25.30;36.10;;;;;;5115366;28;19935;-64
2022/04/16 13:57:59;;;;;;;;;;;25.50;36.20;;;;;;5107523;28;19977;-64
2022/04/16 14:00:25;;;;;;;;;;;25.70;36.00;;;;;;5094687;28;19947;-64
2022/04/16 14:02:50;;;;;;;;;;;25.80;35.60;;;;;;5097658;28;19932;-64
2022/04/16 14:05:43;;;;;;;;;;;26.00;35.60;;;;;;5115649;28;20068;-64
2022/04/16 14:08:08;;;;;;;;;;;26.40;35.80;;;;;;5096067;28;19931;-64
2022/04/16 14:10:34;;;;;;;;;;;26.70;35.80;;;;;;5115552;28;19924;-64
2022/04/16 14:13:00;;;;;;;;;;;27.10;35.70;;;;;;5115671;28;19924;-64
2022/04/16 14:15:25;;;;;;;;;;;27.50;34.60;;;;;;5113455;28;19928;-64
2022/04/16 14:17:51;;;;;;;;;;;27.90;34.30;;;;;;5056570;28;20401;-64
2022/04/16 14:20:17;;;;;;;;;;;28.30;34.00;;;;;;5080522;28;19928;-64
2022/04/16 14:22:43;;;;;;;;;;;28.50;33.10;;;;;;5095395;28;19924;-64
2022/04/16 14:25:09;;;;;;;;;;;28.60;32.70;;;;;;5100520;28;20267;-64
2022/04/16 14:27:35;;;;;;;;;;;28.70;32.70;;;;;;5093844;28;19923;-64
2022/04/16 14:30:01;;;;;;;;;;;29.00;34.40;;;;;;5059167;28;20393;-64
2022/04/16 14:32:27;;;;;;;;;;;29.40;33.90;;;;;;5094705;28;19939;-64
2022/04/16 14:34:53;;;;;;;;;;;29.50;33.00;;;;;;5095777;28;19923;-64
2022/04/16 14:37:19;;;;;;;;;;;29.50;32.30;;;;;;5114808;28;19923;-64
2022/04/16 14:39:44;;;;;;;;;;;29.50;40.80;;;;;;5114909;28;19968;-64
2022/04/16 14:42:12;;;;;;;;;;;29.70;33.70;;;;;;5062461;28;20011;-64
2022/04/16 14:44:47;;;;;;;;;;;29.60;32.50;;;;;;5114467;28;19923;-64
2022/04/16 14:47:13;;;;;;;;;;;29.60;32.60;;;;;;5089592;28;20413;-64